Aérodrome :
LOGIN :

S'inscrire | Disclaimer

   EN    FR    IT 

 










Légende :    VFR   VFR Marginal   IFR   IFR Intensif   IFR Très Intensif
Visi : 
Plafond : 
>= 8 km
>= 3000ft
5 à 8 km
1000 à 3000 ft
1500m à 5 km
500 à 1000 ft
800 à 1500m
200 à 500 ft
< 800m
< 200 ft
Symboles :   Orages  Brouillard  Fortes neiges  Fortes précipitations  Vent > 20 kt
SIGMETs :   Divers  Orages  Givrage  Turbulence  Onde Orograph.  Cendres Volcan.







- Altitude de l'aérodrome : 82 ft
- Code IATA : ALG


DAAG - Alger Houari Boumedienne

DERNIER METAR :
  • 211730Z 09004KT 9999 FEW023 SCT200 13/10 Q1030

METARs EXPIRÉS :
  • 211700Z 08008KT 9999 FEW026 SCT100 BKN200 14/10 Q1030
  • 211630Z 08009KT 9999 FEW030 SCT100 BKN200 14/11 Q1029
  • 211600Z 07009KT 9999 FEW030 SCT100 BKN200 14/11 Q1029
  • 211530Z 07009KT 9999 FEW030 SCT100 BKN200 15/11 Q1029
  • 211500Z 07010KT 9999 FEW030 SCT100 BKN200 15/11 Q1029

TAF TAF DAAG
Valide du 21 à 18h jusqu'au 22 à 18h UTC


211700Z 2118/2218 06010KT 9999 FEW026 SCT100 BKN200
BECMG 2119/2121 VRB02KT
PROB40 2120/2208 3000 BR
PROB40
TEMPO 2122/2207 0600 FG BKN008
BECMG 2211/2213 36010KT
Pas de NOTAMs connus pour ce terrain.



MET'MAP, la Météo Aéronautique d'un coup d'oeil ! - Copyright ORBIFLY Décembre 2007 - Disclaimer

ORBIFLY MET'MAP TEAM :

Programmation & Développement : Alexandra Zaïnal
Conception & Développement : Baudouin d'Aumeries
Co-Programmation & Développement : Marc-Olivier Méhu
Soutien technique & logistique : Manuel Goepfert

Contact : metmap@orbifly.com




SOURCES & CREDITS :

   NOAA